Time;durP1;ratioP1;P1;durP2;ratioP2;P2;SDS_P1;SDS_P2;PMS_P1;PMS_P2;Temp;Humidity;BMP_temperature;BMP_pressure;BME280_temperature;BME280_humidity;BME280_pressure;Samples;Min_cycle;Max_cycle;Signal;HPM_P1;HPM_P2
2022/12/30 00:02:00;;;;;;;18.57;3.53;;;7.40;99.90;;;;;;5050282;28;20402;-58
2022/12/30 00:04:26;;;;;;;20.17;4.10;;;7.30;99.90;;;;;;5048994;28;20406;-59
2022/12/30 00:06:51;;;;;;;18.97;3.77;;;7.30;99.90;;;;;;5049308;28;20029;-61
2022/12/30 00:09:17;;;;;;;24.93;4.23;;;7.30;99.90;;;;;;5082308;28;20045;-57
2022/12/30 00:11:43;;;;;;;18.63;3.38;;;7.20;99.90;;;;;;5050424;28;20032;-59
2022/12/30 00:34:06;;;;;;;14.82;3.05;;;7.20;99.90;;;;;;5080897;28;20056;-57
2022/12/30 00:36:32;;;;;;;20.00;4.32;;;7.20;99.90;;;;;;5049755;28;20037;-58
2022/12/30 00:38:58;;;;;;;16.50;2.35;;;7.20;99.90;;;;;;5049930;28;20041;-59
2022/12/30 00:44:08;;;;;;;16.45;3.72;;;7.10;99.90;;;;;;5048555;28;20291;-59
2022/12/30 00:46:35;;;;;;;22.77;4.40;;;7.00;99.90;;;;;;5048951;28;20549;-60
2022/12/30 00:57:14;;;;;;;19.80;3.63;;;6.90;99.90;;;;;;5048972;28;20045;-59
2022/12/30 00:59:39;;;;;;;18.27;3.33;;;6.90;99.90;;;;;;5049533;28;20033;-58
2022/12/30 01:02:05;;;;;;;22.73;4.07;;;6.90;99.90;;;;;;5049272;28;20036;-58
2022/12/30 01:04:30;;;;;;;16.53;2.73;;;6.90;99.90;;;;;;5048057;28;20106;-56
2022/12/30 01:06:56;;;;;;;17.60;2.53;;;6.90;99.90;;;;;;5048940;28;20037;-59
2022/12/30 01:09:21;;;;;;;19.77;3.20;;;6.80;99.90;;;;;;5048789;28;20035;-59
2022/12/30 01:12:07;;;;;;;17.58;3.95;;;6.80;99.90;;;;;;5049439;28;20044;-58
2022/12/30 01:14:37;;;;;;;15.85;2.20;;;6.80;99.90;;;;;;5048051;28;20064;-57
2022/12/30 01:17:04;;;;;;;19.50;4.20;;;6.80;99.90;;;;;;5048430;28;20044;-58
2022/12/30 01:19:29;;;;;;;;;;;6.70;99.90;;;;;;5049300;28;20033;-57
2022/12/30 01:21:55;;;;;;;21.10;3.35;;;6.70;99.90;;;;;;5048273;28;19920;-58
2022/12/30 01:24:21;;;;;;;19.87;4.57;;;6.70;99.90;;;;;;5045025;28;20105;-56
2022/12/30 01:26:46;;;;;;;14.40;3.77;;;6.70;99.90;;;;;;5048233;28;20554;-59
2022/12/30 01:29:20;;;;;;;23.63;3.87;;;6.70;99.90;;;;;;5048762;28;20457;-58
2022/12/30 01:31:46;;;;;;;16.83;3.78;;;6.70;99.90;;;;;;5048950;28;20037;-56
2022/12/30 01:34:11;;;;;;;17.43;3.83;;;6.60;99.90;;;;;;5047900;28;20514;-56
2022/12/30 01:36:37;;;;;;;21.90;4.47;;;6.50;99.90;;;;;;5047507;28;20517;-56
2022/12/30 01:39:03;;;;;;;13.70;3.78;;;6.50;99.90;;;;;;5048084;28;20040;-59
2022/12/30 01:41:28;;;;;;;13.77;3.77;;;6.50;99.90;;;;;;5048469;28;20048;-59
2022/12/30 01:43:54;;;;;;;23.37;4.07;;;6.50;99.90;;;;;;5047736;28;20349;-56
2022/12/30 01:46:30;;;;;;;16.97;3.67;;;6.40;99.90;;;;;;5048227;28;20121;-57
2022/12/30 01:48:57;;;;;;;17.35;4.78;;;6.40;99.90;;;;;;5047822;28;20130;-59
2022/12/30 01:51:28;;;;;;;14.88;3.65;;;6.50;99.90;;;;;;5046325;28;20047;-59
2022/12/30 01:53:56;;;;;;;23.65;4.00;;;6.40;99.90;;;;;;5047151;28;20190;-56
2022/12/30 01:56:35;;;;;;;16.35;4.32;;;6.30;99.90;;;;;;5048230;28;20123;-59
2022/12/30 01:59:16;;;;;;;20.92;3.55;;;6.30;99.90;;;;;;5046074;28;20171;-56
2022/12/30 02:01:43;;;;;;;16.70;4.78;;;6.20;99.90;;;;;;5048738;28;20049;-57
2022/12/30 02:04:13;;;;;;;22.60;4.70;;;6.20;99.90;;;;;;5047907;28;20079;-59
2022/12/30 02:07:08;;;;;;;18.95;3.75;;;6.10;99.90;;;;;;5048406;28;20033;-58
2022/12/30 02:09:35;;;;;;;20.13;5.20;;;6.10;99.90;;;;;;5045887;28;20060;-58
2022/12/30 02:12:03;;;;;;;13.85;3.83;;;6.10;99.90;;;;;;5048214;28;20417;-57
2022/12/30 02:14:32;;;;;;;17.42;4.30;;;6.00;99.90;;;;;;5047448;28;20409;-57
2022/12/30 02:17:00;;;;;;;22.38;4.20;;;5.90;99.90;;;;;;5048098;28;20102;-56
2022/12/30 02:19:44;;;;;;;33.25;5.38;;;5.90;99.90;;;;;;5048275;28;20201;-58
2022/12/30 02:22:33;;;;;;;25.77;4.65;;;5.80;99.90;;;;;;5048040;28;20041;-56
2022/12/30 02:25:19;;;;;;;22.23;4.50;;;5.80;99.90;;;;;;5047337;28;20037;-57
2022/12/30 02:28:22;;;;;;;15.02;4.32;;;5.70;99.90;;;;;;5025898;28;20052;-61
2022/12/30 02:31:18;;;;;;;20.67;4.95;;;5.70;99.90;;;;;;5047648;28;20041;-57
2022/12/30 02:34:02;;;;;;;16.95;3.60;;;5.70;99.90;;;;;;5046128;28;20048;-57
2022/12/30 02:37:04;;;;;;;14.20;4.28;;;5.70;99.90;;;;;;5029638;28;20080;-57
2022/12/30 02:39:54;;;;;;;17.80;5.10;;;5.70;99.90;;;;;;5045954;28;20147;-59
2022/12/30 02:45:40;;;;;;;23.55;4.90;;;5.70;99.90;;;;;;5047233;28;20041;-57
2022/12/30 02:48:28;;;;;;;20.08;5.28;;;5.70;99.90;;;;;;5047630;28;20033;-57
2022/12/30 02:53:40;;;;;;;16.30;4.53;;;5.70;99.90;;;;;;5051080;28;20045;-59
2022/12/30 02:56:07;;;;;;;16.50;5.18;;;5.70;99.90;;;;;;5050761;28;20029;-57
2022/12/30 02:58:36;;;;;;;19.38;3.50;;;5.70;99.90;;;;;;5051178;28;20045;-56
2022/12/30 03:04:25;;;;;;;24.15;3.75;;;5.60;99.90;;;;;;5050405;28;20041;-57
2022/12/30 03:07:14;;;;;;;25.25;3.88;;;5.60;99.90;;;;;;5051111;28;20068;-57
2022/12/30 03:13:07;;;;;;;20.45;3.35;;;5.50;99.90;;;;;;5051317;28;20076;-58
2022/12/30 03:15:56;;;;;;;23.85;3.95;;;5.50;99.90;;;;;;5050829;28;20040;-55
2022/12/30 03:18:23;;;;;;;15.48;2.80;;;5.50;99.90;;;;;;5045481;28;20076;-59
2022/12/30 03:20:51;;;;;;;17.15;2.72;;;5.50;99.90;;;;;;5049942;28;20055;-57
2022/12/30 03:28:49;;;;;;;15.80;3.03;;;5.60;99.90;;;;;;5050982;28;20048;-59
2022/12/30 03:31:16;;;;;;;15.63;2.35;;;5.60;99.90;;;;;;5050408;28;20076;-56
2022/12/30 03:33:42;;;;;;;10.52;2.65;;;5.60;99.90;;;;;;5050184;28;20498;-57
2022/12/30 03:36:26;;;;;;;18.08;3.22;;;5.60;99.90;;;;;;5050638;28;20414;-56
2022/12/30 03:38:58;;;;;;;17.08;3.17;;;5.60;99.90;;;;;;5050992;28;20106;-59
2022/12/30 03:41:25;;;;;;;19.63;2.20;;;5.60;99.90;;;;;;5050110;28;20047;-57
2022/12/30 03:43:51;;;;;;;16.42;2.97;;;5.50;99.90;;;;;;5050343;28;20233;-57
2022/12/30 03:46:19;;;;;;;12.20;2.85;;;5.50;99.90;;;;;;5050828;28;20033;-59
2022/12/30 03:48:45;;;;;;;20.60;2.85;;;5.50;99.90;;;;;;5047715;28;20090;-58
2022/12/30 03:51:11;;;;;;;11.40;3.27;;;5.50;99.90;;;;;;5050488;28;20037;-60
2022/12/30 03:53:36;;;;;;;13.63;2.57;;;5.50;99.90;;;;;;5049760;28;20033;-58
2022/12/30 03:56:02;;;;;;;13.43;2.23;;;5.50;99.90;;;;;;5049608;28;20548;-59
2022/12/30 03:58:27;;;;;;;15.87;2.53;;;5.50;99.90;;;;;;5050124;28;20064;-59
2022/12/30 04:00:53;;;;;;;19.20;2.47;;;5.50;99.90;;;;;;5065301;28;20772;-59
2022/12/30 04:03:18;;;;;;;13.47;2.90;;;5.50;99.90;;;;;;5049582;28;20033;-57
2022/12/30 04:05:45;;;;;;;15.03;2.03;;;5.50;99.90;;;;;;5049587;28;20045;-59
2022/12/30 04:08:10;;;;;;;13.30;2.50;;;5.50;99.90;;;;;;5046248;28;20045;-57
2022/12/30 04:10:36;;;;;;;15.37;2.77;;;5.50;99.90;;;;;;5065201;28;20052;-59
2022/12/30 04:13:02;;;;;;;24.90;2.20;;;5.50;99.90;;;;;;5049072;28;20072;-58
2022/12/30 04:15:27;;;;;;;21.40;3.37;;;5.50;99.90;;;;;;5050059;28;20029;-58
2022/12/30 04:17:53;;;;;;;9.83;1.83;;;5.50;99.90;;;;;;5049446;28;20090;-56
2022/12/30 04:20:18;;;;;;;13.20;1.93;;;5.50;99.90;;;;;;5050212;28;20025;-59
2022/12/30 04:22:44;;;;;;;12.07;2.30;;;5.50;99.90;;;;;;5049545;28;20056;-57
2022/12/30 04:25:09;;;;;;;13.17;2.10;;;5.50;99.90;;;;;;5048135;28;20482;-57
2022/12/30 04:27:35;;;;;;;13.73;1.87;;;5.50;99.90;;;;;;5049378;28;20550;-60
2022/12/30 04:30:01;;;;;;;8.20;1.93;;;5.50;99.90;;;;;;5049704;28;20421;-58
2022/12/30 04:32:26;;;;;;;14.05;1.90;;;5.50;99.90;;;;;;5049781;28;20048;-58
2022/12/30 04:34:52;;;;;;;12.07;2.00;;;5.40;99.90;;;;;;5048652;28;20142;-58
2022/12/30 04:37:18;;;;;;;17.40;3.10;;;5.50;99.90;;;;;;5048634;28;20033;-58
2022/12/30 04:39:43;;;;;;;12.23;2.00;;;5.50;99.90;;;;;;5049279;28;20041;-59
2022/12/30 04:42:09;;;;;;;11.60;2.47;;;5.50;99.90;;;;;;5049867;28;20458;-58
2022/12/30 04:44:34;;;;;;;9.57;2.30;;;5.50;99.90;;;;;;5048277;28;20056;-58
2022/12/30 04:47:00;;;;;;;17.27;1.73;;;5.50;99.90;;;;;;5049186;28;20159;-59
2022/12/30 04:49:25;;;;;;;12.33;2.83;;;5.50;99.90;;;;;;5081524;28;20056;-56
2022/12/30 04:51:51;;;;;;;14.30;2.63;;;5.50;99.90;;;;;;5049688;28;20037;-56
2022/12/30 04:54:16;;;;;;;19.57;2.40;;;5.50;99.90;;;;;;5047870;28;20529;-59
2022/12/30 04:56:42;;;;;;;12.90;2.20;;;5.40;99.90;;;;;;5048716;28;20047;-60
2022/12/30 04:59:07;;;;;;;13.23;2.50;;;5.50;99.90;;;;;;5049271;28;20090;-57
2022/12/30 05:01:33;;;;;;;20.87;2.87;;;5.40;99.90;;;;;;5049255;28;20090;-58
2022/12/30 05:03:58;;;;;;;17.27;2.03;;;5.50;99.90;;;;;;5049248;28;20487;-58
2022/12/30 05:06:24;;;;;;;14.00;2.37;;;5.50;99.90;;;;;;5049107;28;20506;-56
2022/12/30 05:08:50;;;;;;;13.03;2.30;;;5.40;99.90;;;;;;5049050;28;20409;-59
2022/12/30 05:11:15;;;;;;;14.10;2.80;;;5.40;99.90;;;;;;5048968;28;20078;-60
2022/12/30 05:13:41;;;;;;;17.63;3.93;;;5.40;99.90;;;;;;5048360;28;20055;-59
2022/12/30 05:16:06;;;;;;;16.70;2.93;;;5.40;99.90;;;;;;5048432;28;20033;-56
2022/12/30 05:18:32;;;;;;;11.37;2.30;;;5.30;99.90;;;;;;5048937;28;20036;-57
2022/12/30 05:20:57;;;;;;;19.10;4.20;;;5.30;99.90;;;;;;5048925;28;20029;-59
2022/12/30 05:26:13;;;;;;;18.23;2.47;;;5.30;99.90;;;;;;5048773;28;20040;-57
2022/12/30 05:28:40;;;;;;;17.58;2.55;;;5.20;99.90;;;;;;5048766;28;20072;-56
2022/12/30 05:31:05;;;;;;;16.45;3.47;;;5.20;99.90;;;;;;5048503;28;20032;-57
2022/12/30 05:33:31;;;;;;;13.25;2.67;;;5.20;99.90;;;;;;5047969;28;20086;-56
2022/12/30 05:35:57;;;;;;;22.48;2.88;;;5.20;99.90;;;;;;5047949;28;20040;-59
2022/12/30 05:38:22;;;;;;;13.27;2.17;;;5.20;99.90;;;;;;5045949;28;20076;-57
2022/12/30 05:40:50;;;;;;;20.20;2.33;;;5.20;99.90;;;;;;5048337;28;20064;-57
2022/12/30 05:43:15;;;;;;;11.85;2.92;;;5.20;99.90;;;;;;5048138;28;20033;-57
2022/12/30 05:45:41;;;;;;;16.13;3.40;;;5.20;99.90;;;;;;5030414;28;20047;-59
2022/12/30 05:48:06;;;;;;;20.30;3.40;;;5.10;99.90;;;;;;5048275;28;20104;-59
2022/12/30 05:50:32;;;;;;;20.40;3.23;;;5.20;99.90;;;;;;5048256;28;20032;-60
2022/12/30 05:52:58;;;;;;;15.93;2.60;;;5.20;99.90;;;;;;5047872;28;20040;-59
2022/12/30 05:55:24;;;;;;;17.13;2.60;;;5.20;99.90;;;;;;5048017;28;20163;-59
2022/12/30 05:57:49;;;;;;;12.57;2.17;;;5.20;99.90;;;;;;5048062;28;20119;-56
2022/12/30 06:00:15;;;;;;;12.50;3.07;;;5.20;99.90;;;;;;5048573;28;20090;-58
2022/12/30 06:02:40;;;;;;;16.88;3.00;;;5.20;99.90;;;;;;5047934;28;20041;-59
2022/12/30 06:05:06;;;;;;;14.13;2.17;;;5.20;99.90;;;;;;5047339;28;20040;-59
2022/12/30 06:07:32;;;;;;;14.20;2.35;;;5.10;99.90;;;;;;5047947;28;20433;-58
2022/12/30 06:09:57;;;;;;;18.70;2.77;;;5.10;99.90;;;;;;5048617;28;20036;-59
2022/12/30 06:12:23;;;;;;;17.80;3.60;;;5.10;99.90;;;;;;5048256;28;20413;-60
2022/12/30 06:14:48;;;;;;;17.80;4.10;;;5.20;99.90;;;;;;5047325;28;20052;-58
2022/12/30 06:17:14;;;;;;;10.23;2.10;;;5.20;99.90;;;;;;5047987;28;20505;-56
2022/12/30 06:19:40;;;;;;;8.60;2.00;;;5.10;99.90;;;;;;5048326;28;20071;-58
2022/12/30 06:22:05;;;;;;;17.27;2.57;;;5.10;99.90;;;;;;5047779;28;20060;-56
2022/12/30 06:24:31;;;;;;;19.60;1.90;;;5.20;99.90;;;;;;5049084;28;20086;-58
2022/12/30 06:26:56;;;;;;;19.80;3.60;;;5.10;99.90;;;;;;5051994;28;20061;-58
2022/12/30 06:29:22;;;;;;;16.87;2.73;;;5.10;99.90;;;;;;5052346;28;20036;-56
2022/12/30 06:31:47;;;;;;;15.40;2.50;;;5.10;99.90;;;;;;5052780;28;20045;-60
2022/12/30 06:34:13;;;;;;;14.73;3.37;;;5.10;99.90;;;;;;5050626;28;20033;-58
2022/12/30 06:36:38;;;;;;;18.90;1.80;;;5.10;99.90;;;;;;5051525;28;20131;-56
2022/12/30 06:39:04;;;;;;;11.73;3.47;;;5.10;99.90;;;;;;5052236;28;20033;-58
2022/12/30 06:41:29;;;;;;;26.23;2.40;;;5.10;99.90;;;;;;5052041;28;20269;-58
2022/12/30 06:43:55;;;;;;;13.20;2.60;;;5.00;99.90;;;;;;5051251;28;20037;-56
2022/12/30 06:46:20;;;;;;;18.77;2.77;;;5.00;99.90;;;;;;5051324;28;20036;-59
2022/12/30 06:48:46;;;;;;;13.07;2.37;;;5.10;99.90;;;;;;5051377;28;20406;-60
2022/12/30 06:51:11;;;;;;;7.60;1.83;;;5.10;99.90;;;;;;5051593;28;20033;-57
2022/12/30 06:53:37;;;;;;;10.17;2.50;;;5.00;99.90;;;;;;5050966;28;20065;-58
2022/12/30 06:56:03;;;;;;;15.67;2.37;;;5.00;99.90;;;;;;5051645;28;20036;-58
2022/12/30 06:58:28;;;;;;;17.10;2.95;;;5.00;99.90;;;;;;5050844;28;20082;-60
2022/12/30 07:00:54;;;;;;;7.87;2.10;;;5.10;99.90;;;;;;5052101;28;20112;-59
2022/12/30 07:03:20;;;;;;;17.10;2.03;;;5.00;99.90;;;;;;5050493;28;20068;-57
2022/12/30 07:05:45;;;;;;;13.27;3.00;;;5.00;99.90;;;;;;5048227;28;20028;-57
2022/12/30 07:08:11;;;;;;;17.33;2.60;;;5.00;99.90;;;;;;5051415;28;20029;-59
2022/12/30 07:10:37;;;;;;;12.20;1.50;;;5.00;99.90;;;;;;5051657;28;20514;-57
2022/12/30 07:13:02;;;;;;;15.70;3.03;;;5.00;99.90;;;;;;5050432;28;20033;-57
2022/12/30 07:15:28;;;;;;;15.57;2.23;;;5.00;99.90;;;;;;5049408;28;20078;-59
2022/12/30 07:17:53;;;;;;;16.83;3.30;;;5.00;99.90;;;;;;5048467;28;20115;-58
2022/12/30 07:20:19;;;;;;;15.07;2.63;;;5.10;99.90;;;;;;5050387;28;20041;-57
2022/12/30 07:22:44;;;;;;;11.23;2.03;;;5.00;99.90;;;;;;5051067;28;20037;-57
2022/12/30 07:25:10;;;;;;;19.87;2.33;;;5.10;99.90;;;;;;5049991;28;20033;-58
2022/12/30 07:27:36;;;;;;;27.13;3.03;;;5.00;99.90;;;;;;5050570;28;20124;-57
2022/12/30 07:30:02;;;;;;;13.98;3.80;;;5.10;99.90;;;;;;5049354;28;20037;-59
2022/12/30 07:32:28;;;;;;;17.42;2.92;;;5.10;99.90;;;;;;5050771;28;20043;-56
2022/12/30 07:34:53;;;;;;;18.03;3.00;;;5.10;99.90;;;;;;5048748;28;20041;-58
2022/12/30 07:37:19;;;;;;;11.23;3.33;;;5.10;99.90;;;;;;5049475;28;20064;-57
2022/12/30 07:39:45;;;;;;;24.40;3.00;;;5.10;99.90;;;;;;5051092;28;20044;-60
2022/12/30 07:42:10;;;;;;;18.20;3.40;;;5.10;99.90;;;;;;5050129;28;20395;-59
2022/12/30 07:44:37;;;;;;;8.03;2.03;;;5.10;99.90;;;;;;5047200;28;20044;-59
2022/12/30 07:47:04;;;;;;;17.42;3.15;;;5.20;99.90;;;;;;5048496;28;20557;-57
2022/12/30 07:49:29;;;;;;;15.85;3.47;;;5.10;99.90;;;;;;5049492;28;20079;-57
2022/12/30 07:51:55;;;;;;;13.97;1.87;;;5.10;99.90;;;;;;5049796;28;20045;-56
2022/12/30 07:54:21;;;;;;;10.20;2.50;;;5.20;99.90;;;;;;5049247;28;20116;-56
2022/12/30 07:56:46;;;;;;;13.80;2.77;;;5.10;99.90;;;;;;5049223;28;20067;-59
2022/12/30 07:59:12;;;;;;;14.17;2.50;;;5.20;99.90;;;;;;5049363;28;20398;-58
2022/12/30 08:01:38;;;;;;;18.10;3.40;;;5.20;99.90;;;;;;5049793;28;20561;-59
2022/12/30 08:04:04;;;;;;;12.35;3.50;;;5.20;99.90;;;;;;5048830;28;20037;-57
2022/12/30 08:06:30;;;;;;;14.90;2.55;;;5.20;99.90;;;;;;5050047;28;20486;-57
2022/12/30 08:08:55;;;;;;;19.30;3.17;;;5.30;99.90;;;;;;5049559;28;20086;-55
2022/12/30 08:11:21;;;;;;;11.57;2.30;;;5.30;99.90;;;;;;5050451;28;20033;-59
2022/12/30 08:13:46;;;;;;;15.00;2.40;;;5.30;99.90;;;;;;5049393;28;20090;-60
2022/12/30 08:16:15;;;;;;;10.50;3.70;;;5.30;99.90;;;;;;5050039;28;20090;-58
2022/12/30 08:18:40;;;;;;;11.75;1.88;;;5.40;99.90;;;;;;5048834;28;20059;-59
2022/12/30 08:21:14;;;;;;;9.40;2.08;;;5.40;99.90;;;;;;5050473;28;20394;-57
2022/12/30 08:23:42;;;;;;;17.90;3.67;;;5.40;99.90;;;;;;5048599;28;20387;-58
2022/12/30 08:26:10;;;;;;;9.43;1.70;;;5.40;99.90;;;;;;5049858;28;20033;-59
2022/12/30 08:28:37;;;;;;;18.17;1.88;;;5.50;99.90;;;;;;5046420;28;20025;-59
2022/12/30 08:31:13;;;;;;;;;;;5.50;99.90;;;;;;5049828;28;20025;-57
2022/12/30 08:33:39;;;;;;;10.70;2.22;;;5.50;99.90;;;;;;5047774;28;19924;-57
2022/12/30 08:36:08;;;;;;;15.38;2.75;;;5.50;99.90;;;;;;5049266;28;20048;-58
2022/12/30 08:38:35;;;;;;;13.45;1.95;;;5.60;99.90;;;;;;5046993;28;20056;-60
2022/12/30 08:41:29;;;;;;;10.85;1.77;;;5.60;99.90;;;;;;5049390;28;20440;-56
2022/12/30 08:43:56;;;;;;;10.65;1.52;;;5.70;99.90;;;;;;5048095;28;20045;-55
2022/12/30 08:46:24;;;;;;;18.70;2.78;;;5.70;99.90;;;;;;5048959;28;20040;-57
2022/12/30 08:48:49;;;;;;;10.63;2.35;;;5.80;99.90;;;;;;5048952;28;20033;-58
2022/12/30 08:51:15;;;;;;;19.40;3.53;;;5.80;99.90;;;;;;5049127;28;20128;-57
2022/12/30 08:53:41;;;;;;;9.30;1.53;;;5.80;99.90;;;;;;5045543;28;20048;-56
2022/12/30 08:56:12;;;;;;;14.80;1.92;;;5.80;99.90;;;;;;5048422;28;20037;-57
2022/12/30 08:58:37;;;;;;;20.30;2.67;;;5.80;99.90;;;;;;5049139;28;20034;-59
2022/12/30 09:01:08;;;;;;;14.80;2.77;;;5.90;99.90;;;;;;5049124;28;20625;-60
2022/12/30 09:03:35;;;;;;;11.32;2.15;;;5.90;99.90;;;;;;5048017;28;20063;-58
2022/12/30 09:06:01;;;;;;;10.43;2.38;;;5.90;99.90;;;;;;5047279;28;20098;-55
2022/12/30 09:08:26;;;;;;;12.13;2.43;;;6.00;99.90;;;;;;5048193;28;20498;-60
2022/12/30 09:11:01;;;;;;;9.27;2.13;;;6.00;99.90;;;;;;5048901;28;20048;-60
2022/12/30 09:13:27;;;;;;;15.10;3.25;;;6.10;99.90;;;;;;5047754;28;20041;-58
2022/12/30 09:15:52;;;;;;;15.05;2.70;;;6.10;99.90;;;;;;5048216;28;20703;-61
2022/12/30 09:18:18;;;;;;;12.23;1.97;;;6.10;99.90;;;;;;5080777;28;20029;-59
2022/12/30 09:20:44;;;;;;;16.10;2.58;;;6.20;99.90;;;;;;5044570;28;20045;-57
2022/12/30 09:23:10;;;;;;;9.23;1.80;;;6.20;99.90;;;;;;5046791;28;20526;-54
2022/12/30 09:25:36;;;;;;;16.73;3.30;;;6.20;99.90;;;;;;5048706;28;20497;-57
2022/12/30 09:28:01;;;;;;;14.70;1.57;;;6.30;99.90;;;;;;5048274;28;20057;-59
2022/12/30 09:30:27;;;;;;;10.73;1.63;;;6.30;99.90;;;;;;5044134;28;20770;-59
2022/12/30 09:32:52;;;;;;;7.20;1.23;;;6.30;99.90;;;;;;5048123;28;20029;-58
2022/12/30 09:35:18;;;;;;;3.03;1.43;;;6.40;99.90;;;;;;5047650;28;20120;-56
2022/12/30 09:37:43;;;;;;;14.77;1.97;;;6.40;99.90;;;;;;5046243;28;20182;-58
2022/12/30 09:40:18;;;;;;;6.43;2.20;;;6.40;99.90;;;;;;5046935;28;20091;-60
2022/12/30 09:46:01;;;;;;;9.18;2.25;;;6.40;99.90;;;;;;5049003;28;20429;-59
2022/12/30 09:48:32;;;;;;;9.98;3.22;;;6.50;99.90;;;;;;5006188;28;20097;-56
2022/12/30 09:51:02;;;;;;;14.40;1.60;;;6.60;99.90;;;;;;5005869;28;20052;-57
2022/12/30 09:53:34;;;;;;;12.02;1.48;;;6.60;99.90;;;;;;5005827;28;20419;-59
2022/12/30 09:56:04;;;;;;;7.53;1.20;;;6.60;99.90;;;;;;5022427;28;20041;-59
2022/12/30 09:58:33;;;;;;;11.98;1.25;;;6.70;99.90;;;;;;5002942;28;20042;-59
2022/12/30 10:01:18;;;;;;;7.75;2.20;;;6.70;99.90;;;;;;4988943;28;20172;-57
2022/12/30 10:03:44;;;;;;;13.38;2.03;;;6.80;99.90;;;;;;5004806;28;20105;-59
2022/12/30 10:06:27;;;;;;;7.80;2.27;;;6.80;99.90;;;;;;4988958;28;20611;-56
2022/12/30 10:09:03;;;;;;;11.18;1.83;;;6.80;99.90;;;;;;5005380;28;20030;-58
2022/12/30 10:11:56;;;;;;;8.93;2.50;;;6.80;99.90;;;;;;5005537;28;20049;-57
2022/12/30 10:14:46;;;;;;;8.90;1.85;;;6.90;99.90;;;;;;5004035;28;20041;-57
2022/12/30 10:17:42;;;;;;;8.88;2.90;;;6.90;99.90;;;;;;5004469;28;20400;-58
2022/12/30 10:20:32;;;;;;;13.30;1.75;;;7.00;99.90;;;;;;5005901;28;20519;-58
2022/12/30 10:23:15;;;;;;;7.75;1.73;;;7.10;99.90;;;;;;5004135;28;20053;-58
2022/12/30 10:25:51;;;;;;;15.52;2.35;;;7.10;99.90;;;;;;5027945;28;20102;-58
2022/12/30 10:28:27;;;;;;;17.13;2.58;;;7.10;99.90;;;;;;5048191;28;20103;-55
2022/12/30 10:30:52;;;;;;;10.43;1.80;;;7.20;99.90;;;;;;5046947;28;20040;-57
2022/12/30 10:33:21;;;;;;;10.73;1.92;;;7.20;99.90;;;;;;5047234;28;20033;-56
2022/12/30 10:36:14;;;;;;;7.35;1.27;;;7.30;99.90;;;;;;5046408;28;20110;-58
2022/12/30 10:38:41;;;;;;;9.13;1.67;;;7.30;99.90;;;;;;5047474;28;20033;-57
2022/12/30 10:41:18;;;;;;;3.38;1.52;;;7.40;99.90;;;;;;5048130;28;20041;-56
2022/12/30 10:43:52;;;;;;;;;;;7.50;99.90;;;;;;5046463;28;20044;-57
2022/12/30 10:46:51;;;;;;;5.20;1.17;;;7.50;99.90;;;;;;5047710;28;19916;-56
2022/12/30 10:49:40;;;;;;;8.55;1.33;;;7.60;99.90;;;;;;5048168;28;20094;-58
2022/12/30 10:52:10;;;;;;;8.57;2.13;;;7.60;99.90;;;;;;5048184;28;20048;-58
2022/12/30 10:54:36;;;;;;;7.15;1.25;;;7.70;99.90;;;;;;5046822;28;20402;-58
2022/12/30 10:57:02;;;;;;;8.68;2.20;;;7.70;99.90;;;;;;5047105;28;20481;-58
2022/12/30 10:59:28;;;;;;;4.40;1.53;;;7.70;99.90;;;;;;5048431;28;20113;-59
2022/12/30 11:02:22;;;;;;;13.65;2.15;;;7.70;99.90;;;;;;5047889;28;20037;-57
2022/12/30 11:04:48;;;;;;;8.07;1.20;;;7.80;99.90;;;;;;5046606;28;20025;-58
2022/12/30 11:07:16;;;;;;;8.87;1.63;;;7.80;99.90;;;;;;5047430;28;20386;-59
2022/12/30 11:09:44;;;;;;;10.85;1.60;;;7.80;99.90;;;;;;5048443;28;20296;-59
2022/12/30 11:15:12;;;;;;;6.55;1.25;;;7.90;99.90;;;;;;5050664;28;20048;-56
2022/12/30 11:17:56;;;;;;;10.40;1.42;;;7.90;99.90;;;;;;5050892;28;20512;-59
2022/12/30 11:20:37;;;;;;;9.80;1.58;;;8.00;99.90;;;;;;5051227;28;20059;-59
2022/12/30 11:23:06;;;;;;;7.70;1.05;;;8.00;99.90;;;;;;5050351;28;20037;-57
2022/12/30 11:25:42;;;;;;;5.68;1.25;;;8.00;99.90;;;;;;5050877;28;20029;-56
2022/12/30 11:28:20;;;;;;;5.03;0.98;;;8.10;99.90;;;;;;5050229;28;20064;-57
2022/12/30 11:30:54;;;;;;;8.68;1.02;;;8.10;99.90;;;;;;5051450;28;20082;-56
2022/12/30 11:33:26;;;;;;;14.05;2.47;;;8.20;99.90;;;;;;5050322;28;20183;-56
2022/12/30 11:35:52;;;;;;;9.30;1.30;;;8.20;99.90;;;;;;5050975;28;20041;-56
2022/12/30 11:38:33;;;;;;;7.22;1.13;;;8.20;99.90;;;;;;5048876;28;20051;-57
2022/12/30 11:41:19;;;;;;;5.90;1.35;;;8.20;99.90;;;;;;5050903;28;20089;-57
2022/12/30 11:43:46;;;;;;;6.95;0.85;;;8.30;99.90;;;;;;5049571;28;20525;-58
2022/12/30 11:46:17;;;;;;;3.47;1.15;;;8.30;99.90;;;;;;5047674;28;20040;-59
2022/12/30 11:48:50;;;;;;;5.40;0.98;;;8.30;99.90;;;;;;5048257;28;20049;-58
2022/12/30 11:51:24;;;;;;;5.38;1.30;;;8.30;99.90;;;;;;5049074;28;20067;-57
2022/12/30 11:54:10;;;;;;;4.65;0.85;;;8.30;99.90;;;;;;5050037;28;20068;-56
2022/12/30 11:56:55;;;;;;;10.70;1.13;;;8.40;99.90;;;;;;5042564;28;20098;-60
2022/12/30 11:59:36;;;;;;;5.40;1.00;;;8.30;99.90;;;;;;5050606;28;20044;-59
2022/12/30 12:02:29;;;;;;;9.10;0.82;;;8.40;99.90;;;;;;5050178;28;20396;-56
2022/12/30 12:04:55;;;;;;;5.47;1.48;;;8.40;99.90;;;;;;5046545;28;20086;-57
2022/12/30 12:07:58;;;;;;;4.33;0.77;;;8.40;99.90;;;;;;5049892;28;20041;-58
2022/12/30 12:10:31;;;;;;;5.57;1.08;;;8.50;99.90;;;;;;5048810;28;20049;-57
2022/12/30 12:13:01;;;;;;;5.90;0.90;;;8.50;99.90;;;;;;5045562;28;20418;-56
2022/12/30 12:15:40;;;;;;;4.38;0.73;;;8.50;99.90;;;;;;5045611;28;20052;-58
2022/12/30 12:18:20;;;;;;;8.02;0.73;;;8.50;99.90;;;;;;5049974;28;20037;-57
2022/12/30 12:20:56;;;;;;;7.43;0.80;;;8.50;99.90;;;;;;5049427;28;20516;-57
2022/12/30 12:23:57;;;;;;;4.80;1.02;;;8.60;99.90;;;;;;5047857;28;20055;-59
2022/12/30 12:26:31;;;;;;;7.47;1.65;;;8.60;99.90;;;;;;5024185;28;20549;-58
2022/12/30 12:28:58;;;;;;;4.40;0.98;;;8.60;99.90;;;;;;5047817;28;20079;-56
2022/12/30 12:31:57;;;;;;;3.63;0.80;;;8.60;99.90;;;;;;5049932;28;20037;-59
2022/12/30 12:34:23;;;;;;;3.65;1.15;;;8.60;99.90;;;;;;5048638;28;20391;-58
2022/12/30 12:37:11;;;;;;;6.37;0.53;;;8.60;99.90;;;;;;5049484;28;20063;-57
2022/12/30 12:39:42;;;;;;;6.55;0.68;;;8.60;99.90;;;;;;5048053;28;20041;-57
2022/12/30 12:42:21;;;;;;;2.15;0.40;;;8.60;99.90;;;;;;5048386;28;20532;-57
2022/12/30 12:45:11;;;;;;;5.95;1.15;;;8.60;99.90;;;;;;5047644;28;20110;-58
2022/12/30 12:47:52;;;;;;;5.13;0.40;;;8.70;99.90;;;;;;5046665;28;20033;-55
2022/12/30 12:50:54;;;;;;;6.72;1.25;;;8.70;99.90;;;;;;5047424;28;20120;-56
2022/12/30 12:53:41;;;;;;;6.40;1.02;;;8.70;99.90;;;;;;5032733;28;20494;-56
2022/12/30 12:56:17;;;;;;;3.95;0.50;;;8.80;99.90;;;;;;5048344;28;20036;-58
2022/12/30 12:59:20;;;;;;;7.70;0.52;;;8.80;99.90;;;;;;5049526;28;20072;-52
2022/12/30 13:01:59;;;;;;;4.65;1.00;;;8.80;99.90;;;;;;5049572;28;20124;-57
2022/12/30 13:05:07;;;;;;;2.70;1.05;;;8.80;99.90;;;;;;5048261;28;20033;-56
2022/12/30 13:07:56;;;;;;;4.57;0.65;;;8.90;99.90;;;;;;5048789;28;20041;-55
2022/12/30 13:10:50;;;;;;;4.03;0.68;;;8.90;99.90;;;;;;5048786;28;20029;-56
2022/12/30 13:13:33;;;;;;;4.43;0.63;;;8.90;99.90;;;;;;5048402;28;20409;-57
2022/12/30 13:16:11;;;;;;;2.38;0.50;;;8.90;99.90;;;;;;5048461;28;20036;-56
2022/12/30 13:18:41;;;;;;;2.15;0.30;;;8.90;99.90;;;;;;5048399;28;20037;-54
2022/12/30 13:21:10;;;;;;;5.05;0.73;;;9.00;99.90;;;;;;5048890;28;20032;-53
2022/12/30 13:23:46;;;;;;;8.20;0.75;;;9.00;99.90;;;;;;5047882;28;20368;-56
2022/12/30 13:26:11;;;;;;;4.70;0.82;;;9.00;99.90;;;;;;5048389;28;20029;-58
2022/12/30 13:28:38;;;;;;;5.90;1.03;;;9.00;99.90;;;;;;5048342;28;20025;-57
2022/12/30 13:31:26;;;;;;;7.18;1.02;;;9.00;99.90;;;;;;5045670;28;20043;-57
2022/12/30 13:34:10;;;;;;;3.53;0.40;;;9.00;99.90;;;;;;5047038;28;20063;-58
2022/12/30 13:36:48;;;;;;;2.95;0.57;;;9.00;99.90;;;;;;5046368;28;20455;-55
2022/12/30 13:39:20;;;;;;;3.20;0.63;;;9.10;99.90;;;;;;5048063;28;20112;-58
2022/12/30 13:42:18;;;;;;;5.22;0.70;;;9.10;99.90;;;;;;5047394;28;20529;-56
2022/12/30 13:44:45;;;;;;;7.63;0.90;;;9.10;99.90;;;;;;5046594;28;20037;-58
2022/12/30 13:47:39;;;;;;;4.15;0.80;;;9.10;99.90;;;;;;5047802;28;20036;-57
2022/12/30 13:50:23;;;;;;;4.45;0.60;;;9.10;99.90;;;;;;5048510;28;20048;-58
2022/12/30 13:52:55;;;;;;;3.58;0.60;;;9.10;99.90;;;;;;5048694;28;20052;-58
2022/12/30 13:55:29;;;;;;;5.25;0.95;;;9.10;99.90;;;;;;5048057;28;20449;-59
2022/12/30 13:58:18;;;;;;;2.63;0.20;;;9.10;99.90;;;;;;5047940;28;20056;-57
2022/12/30 14:00:44;;;;;;;4.28;0.60;;;9.20;99.90;;;;;;5046410;28;20086;-56
2022/12/30 14:03:25;;;;;;;4.93;0.50;;;9.30;99.90;;;;;;5047632;28;20132;-58
2022/12/30 14:05:55;;;;;;;6.60;0.85;;;9.30;99.90;;;;;;5046520;28;20139;-56
2022/12/30 14:08:41;;;;;;;3.53;0.70;;;9.30;99.90;;;;;;5047467;28;20049;-59
2022/12/30 14:11:13;;;;;;;5.05;0.73;;;9.40;99.90;;;;;;5048306;28;20110;-57